Capitol Logistics 993

Operating for DHL



EGFF
Cardiff International Airport
Cardiff, GB
EGNX
East Midlands Airport
Derby, GB

Activity Log

Date Flight Route Aircraft Duration
05/15/2022 CPX993 BCN1B BCN Q63 CPT DCT OCK Q3 HEMEL HEME1E B738 0h 56m
01/19/2022 CPX993 BCN1A BCN Q63 CPT OCK Q3 HEMEL HEME1E B738 0h 54m

Route Details

Aircraft Information
Group: European Fleet
Types: A30F,A31F,B738
Route Data
Demand: L
Distance: 114nm
Duration: 1h 00m
Recm'd Route: BCN1A BCN Q63 CPT OCK Q3 HEMEL HEME1E
Origin Wx: EGFF 270520Z AUTO 30008KT 9999 NCD 10/09 Q1025
Dest. Wx: EGNX 270520Z 26011KT CAVOK 09/04 Q1023
Notes:

Financial History
Total Freight: 24,316lbs
Average Load: 12,158lbs/flt
Fuel Used: 9,981lbs
Avg. Fuel Used: 4,991lbs/flt
Fuel Expense: $7,663
Avg. Fuel Expense: $3,832
Avg. Fuel Cost: $0.77/lbs
Total Gross Income: $52,628
Pilot Pay: $198
Total Expenses: $8,987
Total Revenue: $35,867
Average Revenue: $26,314.08